Main page
METAR-TAF:

METAR-TAF

Airports :

Niederstetten Air Base

Niederstetten, Germany

latitude: 49-24N, longitude: 009-58E, elevation: 468 m

Current weather observation

The report was made 56 minutes ago, at 16:20 UTC
Wind 7 kt from the North
Temperature 26°C
Humidity 30%
Pressure 1016 hPa
Visibility 10 km or more
Few clouds at a height of 6000 ft

METAR: ETHN 191620Z 01007KT 9999 FEW060 26/07 Q1016 BLU+

Time: 19:16 (17:16 UTC)

Forecast

The report was made 2 hours and 34 minutes ago, at 14:42 UTC
Forecast valid from 19 at 14 UTC to 19 at 23 UTC
Wind 5 kt from the North
Visibility: 1500 m
Few clouds at a height of 6000 ft

TAF: ETHN 191442Z 1914/1923 36005KT 9999 NSW FEW060 CANCEL 1500

Weather observations and forecasts of more than 4000 airports (METAR and TAF reports).

The available stations are represented by yellow and red dots on the map.

Hover mouse over dot to see the name of the station.

Then click to see weather observations and forecasts.

To change the map : click on the green buttons with a black cross to zoom in, on the green button with a dash to zoom out, or on the green arrows for adjacent maps.


METAR-TAF: